createdAt,value
2022-10-06T00:01:28.146Z,101285.78
2022-10-06T00:05:30.170Z,101286.31
2022-10-06T00:09:31.626Z,101297.38
2022-10-06T00:13:33.823Z,101296.72
2022-10-06T00:17:35.335Z,101297.25
2022-10-06T00:21:36.904Z,101303.78
2022-10-06T00:25:39.035Z,101314.00
2022-10-06T00:29:42.350Z,101321.31
2022-10-06T00:33:43.887Z,101326.91
2022-10-06T00:37:45.832Z,101328.84
2022-10-06T00:41:47.235Z,101323.09
2022-10-06T00:45:49.168Z,101331.97
2022-10-06T00:49:51.145Z,101330.28
2022-10-06T00:53:53.101Z,101338.31
2022-10-06T00:57:54.958Z,101332.38
2022-10-06T01:02:11.365Z,101332.47
2022-10-06T01:06:13.282Z,101338.13
2022-10-06T01:10:14.713Z,101336.53
2022-10-06T01:14:17.391Z,101345.69
2022-10-06T01:18:22.243Z,101340.53
2022-10-06T01:22:28.994Z,101343.41
2022-10-06T01:26:33.035Z,101353.66
2022-10-06T01:30:50.941Z,101348.22
2022-10-06T01:34:52.449Z,101354.25
2022-10-06T01:38:53.818Z,101374.91
2022-10-06T01:42:56.146Z,101368.25
2022-10-06T01:46:57.548Z,101364.34
2022-10-06T01:50:58.929Z,101362.06
2022-10-06T01:55:00.327Z,101361.66
2022-10-06T01:59:01.766Z,101359.09
2022-10-06T02:03:03.267Z,101365.34
2022-10-06T02:07:05.061Z,101360.03
2022-10-06T02:11:10.782Z,101359.47
2022-10-06T02:15:12.193Z,101367.84
2022-10-06T02:19:13.591Z,101364.84
2022-10-06T02:23:14.954Z,101365.63
2022-10-06T02:27:16.381Z,101378.16
2022-10-06T02:31:17.850Z,101372.25
2022-10-06T02:35:19.304Z,101381.84
2022-10-06T02:39:20.660Z,101380.22
2022-10-06T02:43:22.129Z,101388.00
2022-10-06T02:47:23.587Z,101386.81
2022-10-06T02:51:25.296Z,101393.06
2022-10-06T02:55:26.947Z,101407.16
2022-10-06T02:59:28.348Z,101404.66
2022-10-06T03:03:30.934Z,101414.16
2022-10-06T03:07:32.399Z,101406.84
2022-10-06T03:11:36.645Z,101414.53
2022-10-06T03:15:38.026Z,101414.03
2022-10-06T03:19:40.040Z,101418.56
2022-10-06T03:23:44.002Z,101437.16
2022-10-06T03:27:45.501Z,101450.59
2022-10-06T03:31:46.944Z,101465.53
2022-10-06T03:35:57.608Z,101468.97
2022-10-06T03:39:59.062Z,101492.22
2022-10-06T03:44:00.956Z,101509.84
2022-10-06T03:48:02.378Z,101512.97
2022-10-06T03:52:03.791Z,101539.78
2022-10-06T03:56:11.669Z,101542.66
2022-10-06T04:00:13.780Z,101544.13
2022-10-06T04:04:15.371Z,101556.53
2022-10-06T04:08:16.853Z,101554.00
2022-10-06T04:12:18.241Z,101575.81
2022-10-06T04:16:25.237Z,101571.25
2022-10-06T04:20:26.730Z,101585.41
2022-10-06T04:24:28.175Z,101585.50
2022-10-06T04:28:30.264Z,101598.28
2022-10-06T04:32:32.310Z,101613.31
2022-10-06T04:36:40.054Z,101615.44
2022-10-06T04:40:41.438Z,101607.66
2022-10-06T04:44:42.854Z,101616.78
2022-10-06T04:48:44.549Z,101631.09
2022-10-06T04:52:45.994Z,101627.28
2022-10-06T04:56:47.381Z,101631.56
2022-10-06T05:00:49.149Z,101632.16
2022-10-06T05:04:50.579Z,101645.97
2022-10-06T05:08:54.324Z,101666.13
2022-10-06T05:12:57.010Z,101686.31
2022-10-06T05:16:58.416Z,101688.84
2022-10-06T05:21:06.664Z,101704.16
2022-10-06T05:25:08.743Z,101710.63
2022-10-06T05:29:10.205Z,101710.41
2022-10-06T05:33:12.186Z,101716.38
2022-10-06T05:37:13.571Z,101731.72
2022-10-06T05:41:18.715Z,101748.47
2022-10-06T05:45:20.132Z,101767.41
2022-10-06T05:49:21.549Z,101771.03
2022-10-06T05:53:23.006Z,101778.97
2022-10-06T05:57:24.389Z,101790.78
2022-10-06T06:01:33.153Z,101805.66
2022-10-06T06:05:34.653Z,101811.31
2022-10-06T06:09:36.071Z,101830.41
2022-10-06T06:13:37.534Z,101855.16
2022-10-06T06:17:38.938Z,101856.69
2022-10-06T06:21:40.452Z,101861.16
2022-10-06T06:25:42.626Z,101875.28
2022-10-06T06:29:44.030Z,101888.91
2022-10-06T06:33:45.490Z,101886.03
2022-10-06T06:37:46.868Z,101896.91
2022-10-06T06:41:48.902Z,101909.16
2022-10-06T06:45:50.354Z,101926.56
2022-10-06T06:49:51.827Z,101927.72
2022-10-06T06:53:53.790Z,101943.03
2022-10-06T06:57:55.429Z,101956.38
2022-10-06T07:01:57.633Z,101965.63
2022-10-06T07:06:09.414Z,101960.75
2022-10-06T07:10:11.571Z,101975.88
2022-10-06T07:14:12.995Z,101997.84
2022-10-06T07:18:33.093Z,101992.16
2022-10-06T07:22:52.875Z,101996.75
2022-10-06T07:26:56.375Z,102003.25
2022-10-06T07:31:00.700Z,102025.63
2022-10-06T07:35:04.253Z,102036.78
2022-10-06T07:39:05.750Z,102046.38
2022-10-06T07:43:07.122Z,102050.44
2022-10-06T07:47:09.124Z,102059.03
2022-10-06T07:51:16.040Z,102060.78
2022-10-06T07:55:18.210Z,102062.88
2022-10-06T07:59:20.383Z,102072.22
2022-10-06T08:03:22.216Z,102081.84
2022-10-06T08:07:23.661Z,102107.22
2022-10-06T08:11:25.102Z,102094.13
2022-10-06T08:15:26.614Z,102103.09
2022-10-06T08:19:27.974Z,102103.13
2022-10-06T08:23:29.322Z,102118.34
2022-10-06T08:27:30.921Z,102126.41
2022-10-06T08:31:32.565Z,102130.31
2022-10-06T08:35:36.046Z,102133.41
2022-10-06T08:39:37.440Z,102156.31
2022-10-06T08:43:39.212Z,102151.16
2022-10-06T08:47:47.224Z,102152.41
2022-10-06T08:52:00.533Z,102150.38
2022-10-06T08:56:18.118Z,102152.63
2022-10-06T09:00:21.432Z,102167.50
2022-10-06T09:04:30.426Z,102163.81
2022-10-06T09:08:47.430Z,102174.47
2022-10-06T09:13:00.649Z,102188.00
2022-10-06T09:17:10.622Z,102187.94
2022-10-06T09:21:16.708Z,102202.06
2022-10-06T09:25:21.782Z,102206.59
2022-10-06T09:29:23.504Z,102204.25
2022-10-06T09:33:26.140Z,102212.88
2022-10-06T09:37:28.193Z,102219.56
2022-10-06T09:41:42.889Z,102224.50
2022-10-06T09:45:44.373Z,102228.06
2022-10-06T09:50:11.973Z,102228.25
2022-10-06T09:54:14.958Z,102214.00
2022-10-06T09:58:21.386Z,102242.56
2022-10-06T10:02:36.761Z,102238.75
2022-10-06T10:06:38.956Z,102244.84
2022-10-06T10:10:41.194Z,102251.25
2022-10-06T10:14:42.630Z,102260.81
2022-10-06T10:18:50.918Z,102252.75
2022-10-06T10:22:53.880Z,102263.44
2022-10-06T10:27:05.040Z,102257.56
2022-10-06T10:31:26.146Z,102248.75
2022-10-06T10:35:32.126Z,102274.31
2022-10-06T10:39:47.065Z,102264.72
2022-10-06T10:43:48.678Z,102270.25
2022-10-06T10:47:50.293Z,102262.50
2022-10-06T10:52:13.947Z,102280.69
2022-10-06T10:56:17.667Z,102277.78
2022-10-06T11:00:22.806Z,102278.34
2022-10-06T11:04:24.786Z,102282.09
2022-10-06T11:08:50.561Z,102277.88
2022-10-06T11:13:16.127Z,102289.63
2022-10-06T11:17:45.280Z,102272.66
2022-10-06T11:22:11.288Z,102289.91
2022-10-06T11:26:39.700Z,102290.88
2022-10-06T11:30:58.442Z,102293.50
2022-10-06T11:34:59.975Z,102296.31
2022-10-06T11:39:37.315Z,102300.56
2022-10-06T11:43:52.038Z,102306.41
2022-10-06T11:47:56.448Z,102303.78
2022-10-06T11:52:18.463Z,102307.16
2022-10-06T11:56:19.801Z,102315.28
2022-10-06T12:00:21.222Z,102316.06
2022-10-06T12:04:24.642Z,102313.19
2022-10-06T12:08:37.396Z,102317.41
2022-10-06T12:12:42.034Z,102308.84
2022-10-06T12:21:25.185Z,102318.13
2022-10-06T12:25:38.054Z,102310.78
2022-10-06T12:29:50.171Z,102303.88
2022-10-06T12:33:51.647Z,102315.34
2022-10-06T12:37:55.307Z,102326.34
2022-10-06T12:42:20.270Z,102315.84
2022-10-06T12:46:37.519Z,102322.56
2022-10-06T12:50:42.759Z,102325.16
2022-10-06T12:55:00.413Z,102324.44
2022-10-06T12:59:28.488Z,102332.38
2022-10-06T13:03:30.579Z,102329.47
2022-10-06T13:07:34.081Z,102327.38
2022-10-06T13:11:35.514Z,102336.34
2022-10-06T13:15:41.423Z,102327.00
2022-10-06T13:19:46.741Z,102330.53
2022-10-06T13:23:49.175Z,102328.19
2022-10-06T13:27:53.753Z,102324.56
2022-10-06T13:31:55.957Z,102324.47
2022-10-06T13:35:58.290Z,102332.84
2022-10-06T13:40:00.729Z,102342.78
2022-10-06T13:44:20.803Z,102343.16
2022-10-06T13:48:22.193Z,102333.00
2022-10-06T13:52:50.515Z,102340.22
2022-10-06T13:56:53.163Z,102354.31
2022-10-06T14:01:00.651Z,102360.69
2022-10-06T14:05:34.121Z,102342.25
2022-10-06T14:09:35.512Z,102337.13
2022-10-06T14:13:52.148Z,102344.63
2022-10-06T14:18:00.155Z,102357.47
2022-10-06T14:22:03.576Z,102354.81
2022-10-06T14:26:05.644Z,102362.50
2022-10-06T14:30:07.884Z,102360.63
2022-10-06T14:34:14.365Z,102359.91
2022-10-06T14:38:16.032Z,102365.25
2022-10-06T14:42:18.180Z,102363.25
2022-10-06T14:46:19.817Z,102367.19
2022-10-06T14:50:21.338Z,102370.81
2022-10-06T14:54:22.967Z,102371.09
2022-10-06T14:58:24.346Z,102366.50
2022-10-06T15:02:25.857Z,102369.06
2022-10-06T15:06:46.519Z,102362.66
2022-10-06T15:10:51.842Z,102364.69
2022-10-06T15:14:53.234Z,102362.53
2022-10-06T15:18:54.718Z,102371.56
2022-10-06T15:22:56.422Z,102368.88
2022-10-06T15:27:17.662Z,102363.47
2022-10-06T15:31:25.035Z,102370.00
2022-10-06T15:35:26.472Z,102373.56
2022-10-06T15:39:30.016Z,102371.78
2022-10-06T15:43:52.022Z,102375.03
2022-10-06T15:47:53.391Z,102376.94
2022-10-06T15:52:02.556Z,102371.13
2022-10-06T15:56:04.837Z,102373.75
2022-10-06T16:00:06.869Z,102373.25
2022-10-06T16:04:47.185Z,102377.28
2022-10-06T16:08:48.600Z,102383.78
2022-10-06T16:12:49.984Z,102380.19
2022-10-06T16:16:52.435Z,102387.63
2022-10-06T16:20:54.668Z,102393.84
2022-10-06T16:24:56.038Z,102395.44
2022-10-06T16:28:57.681Z,102391.47
2022-10-06T16:32:59.056Z,102400.59
2022-10-06T16:37:00.458Z,102400.75
2022-10-06T16:41:02.581Z,102407.66
2022-10-06T16:45:04.226Z,102406.88
2022-10-06T16:49:08.377Z,102402.44
2022-10-06T16:53:12.437Z,102409.41
2022-10-06T16:57:18.173Z,102423.41
2022-10-06T17:01:21.833Z,102426.47
2022-10-06T17:05:23.306Z,102429.13
2022-10-06T17:09:27.385Z,102434.28
2022-10-06T17:13:29.172Z,102434.06
2022-10-06T17:17:30.585Z,102440.44
2022-10-06T17:21:45.704Z,102439.03
2022-10-06T17:25:59.490Z,102441.38
2022-10-06T17:30:00.930Z,102444.38
2022-10-06T17:34:11.213Z,102443.03
2022-10-06T17:38:12.666Z,102442.66
2022-10-06T17:42:15.133Z,102446.78
2022-10-06T17:46:20.175Z,102438.72
2022-10-06T17:50:21.594Z,102436.91
2022-10-06T17:54:26.696Z,102442.50
2022-10-06T17:58:30.122Z,102445.84
2022-10-06T18:02:31.658Z,102450.78
2022-10-06T18:06:35.453Z,102446.69
2022-10-06T18:10:59.117Z,102445.41
2022-10-06T18:15:01.485Z,102446.59
2022-10-06T18:19:11.512Z,102450.94
2022-10-06T18:23:14.174Z,102449.94
2022-10-06T18:27:15.568Z,102455.19
2022-10-06T18:31:18.849Z,102452.72
2022-10-06T18:39:42.029Z,102457.84
2022-10-06T18:43:44.256Z,102462.94
2022-10-06T18:48:04.177Z,102455.44
2022-10-06T18:52:06.975Z,102460.16
2022-10-06T18:56:08.525Z,102463.25
2022-10-06T19:00:10.786Z,102453.78
2022-10-06T19:04:14.827Z,102459.34
2022-10-06T19:08:16.184Z,102464.56
2022-10-06T19:12:17.547Z,102465.22
2022-10-06T19:16:22.241Z,102467.84
2022-10-06T19:20:23.687Z,102478.28
2022-10-06T19:24:27.462Z,102479.84
2022-10-06T19:28:31.423Z,102465.13
2022-10-06T19:32:33.024Z,102475.59
2022-10-06T19:36:35.305Z,102477.31
2022-10-06T19:40:36.851Z,102474.06
2022-10-06T19:44:43.141Z,102483.25
2022-10-06T19:48:44.771Z,102486.63
2022-10-06T19:52:46.287Z,102481.09
2022-10-06T19:56:48.321Z,102486.13
2022-10-06T20:00:49.696Z,102482.97
2022-10-06T20:04:51.085Z,102486.97
2022-10-06T20:08:52.860Z,102495.66
2022-10-06T20:12:54.340Z,102502.50
2022-10-06T20:16:56.792Z,102496.91
2022-10-06T20:20:58.906Z,102498.06
2022-10-06T20:25:01.840Z,102510.78
2022-10-06T20:29:07.685Z,102510.22
2022-10-06T20:33:11.267Z,102505.16
2022-10-06T20:37:12.628Z,102512.00
2022-10-06T20:41:17.797Z,102520.13
2022-10-06T20:45:19.166Z,102513.09
2022-10-06T20:49:21.220Z,102509.69
2022-10-06T20:53:29.579Z,102519.50
2022-10-06T20:57:33.845Z,102517.22
2022-10-06T21:01:37.180Z,102522.13
2022-10-06T21:05:38.689Z,102509.53
2022-10-06T21:09:40.353Z,102514.31
2022-10-06T21:13:48.503Z,102503.81
2022-10-06T21:17:49.923Z,102507.63
2022-10-06T21:21:53.719Z,102500.94
2022-10-06T21:25:56.306Z,102496.50
2022-10-06T21:29:57.789Z,102491.50
2022-10-06T21:34:00.455Z,102489.13
2022-10-06T21:38:01.878Z,102502.00
2022-10-06T21:42:03.669Z,102486.44
2022-10-06T21:46:27.026Z,102484.97
2022-10-06T21:50:26.575Z,102492.50
2022-10-06T21:54:27.997Z,102491.81
2022-10-06T21:58:29.413Z,102485.31
2022-10-06T22:02:30.889Z,102484.47
2022-10-06T22:06:34.883Z,102483.47
2022-10-06T22:10:36.333Z,102476.28
2022-10-06T22:14:37.742Z,102472.72
2022-10-06T22:18:40.538Z,102481.53
2022-10-06T22:22:41.948Z,102478.22
2022-10-06T22:26:44.452Z,102470.94
2022-10-06T22:30:45.845Z,102473.78
2022-10-06T22:34:47.264Z,102462.31
2022-10-06T22:38:48.710Z,102456.78
2022-10-06T22:42:50.126Z,102454.09
2022-10-06T22:46:51.637Z,102465.56
2022-10-06T22:50:53.294Z,102461.44
2022-10-06T22:54:54.751Z,102466.38
2022-10-06T22:58:59.418Z,102459.28
2022-10-06T23:03:01.089Z,102460.44
2022-10-06T23:07:02.535Z,102457.94
2022-10-06T23:11:06.607Z,102457.47
2022-10-06T23:15:11.358Z,102450.13
2022-10-06T23:19:12.879Z,102440.81
2022-10-06T23:23:14.538Z,102447.34
2022-10-06T23:27:15.959Z,102445.56
2022-10-06T23:31:17.424Z,102442.00
2022-10-06T23:35:18.919Z,102438.19
2022-10-06T23:39:20.317Z,102450.72
2022-10-06T23:43:23.053Z,102444.94
2022-10-06T23:47:24.534Z,102452.81
2022-10-06T23:51:26.038Z,102439.69
2022-10-06T23:55:27.437Z,102439.25
2022-10-06T23:59:29.531Z,102450.81
